Time;durP1;ratioP1;P1;durP2;ratioP2;P2;SDS_P1;SDS_P2;PMS_P1;PMS_P2;Temp;Humidity;BMP_temperature;BMP_pressure;BME280_temperature;BME280_humidity;BME280_pressure;Samples;Min_cycle;Max_cycle;Signal;HPM_P1;HPM_P2
2022/03/02 12:16:42;;;;;;;18.90;4.38;;;;;;;19.85;35.05;101062.69;10212666;27;44575;-74
2022/03/02 12:21:34;;;;;;;13.73;4.38;;;;;;;19.95;34.80;101046.84;10153424;28;66154;-73
2022/03/02 12:26:26;;;;;;;15.77;4.10;;;;;;;20.02;34.69;101039.03;10153295;27;64310;-73
2022/03/02 12:31:18;;;;;;;15.15;3.90;;;;;;;20.16;34.58;101039.13;10149895;28;66317;-74
2022/03/02 12:36:11;;;;;;;8.45;3.38;;;;;;;20.12;34.35;101029.84;10154357;28;66476;-74
2022/03/02 12:41:05;;;;;;;10.05;3.40;;;;;;;20.15;34.40;101021.81;10157022;28;65482;-74
2022/03/02 12:45:58;;;;;;;9.55;3.45;;;;;;;20.13;34.31;101018.53;10156788;28;66696;-74
2022/03/02 12:50:50;;;;;;;8.63;3.58;;;;;;;20.21;34.32;101008.00;10158317;28;66058;-75
2022/03/02 12:55:43;;;;;;;6.57;3.60;;;;;;;20.20;34.28;101003.59;10157166;28;66208;-75
2022/03/02 13:00:35;;;;;;;9.35;3.78;;;;;;;20.24;33.70;100997.19;10156677;28;65038;-75
2022/03/02 13:05:30;;;;;;;7.22;5.43;;;;;;;19.43;28.17;100995.41;10151952;28;66339;-73
2022/03/02 13:10:23;;;;;;;7.82;5.75;;;;;;;19.24;26.18;100998.09;10152200;28;66297;-73
2022/03/02 13:15:35;;;;;;;9.75;5.68;;;;;;;19.02;26.59;101002.44;10155226;28;65760;-73
2022/03/02 13:20:27;;;;;;;9.00;6.10;;;;;;;18.60;25.26;101001.94;10156388;28;66846;-77
2022/03/02 13:25:20;;;;;;;9.32;6.45;;;;;;;18.53;24.43;101000.59;10145573;28;66381;-75
2022/03/02 13:30:13;;;;;;;8.07;6.45;;;;;;;18.76;25.79;101001.81;10130111;28;67095;-75
2022/03/02 13:35:07;;;;;;;7.22;6.07;;;;;;;18.87;24.20;100984.16;10130932;28;66309;-73
2022/03/02 13:39:59;;;;;;;9.18;6.30;;;;;;;18.85;23.83;100976.19;10127961;28;66020;-75
2022/03/02 13:44:52;;;;;;;11.60;6.03;;;;;;;18.65;24.50;100981.88;10129185;28;66165;-74
2022/03/02 13:50:09;;;;;;;9.80;5.60;;;;;;;18.77;24.84;100970.50;10126783;28;66180;-71
2022/03/02 13:55:04;;;;;;;6.72;5.40;;;;;;;19.27;24.77;100980.19;10112165;28;67487;-78
2022/03/02 14:00:26;;;;;;;6.50;5.13;;;;;;;19.55;25.07;100970.31;10127807;28;66174;-81
2022/03/02 14:05:20;;;;;;;5.25;4.60;;;;;;;19.68;25.89;100966.84;10127539;28;66308;-80
2022/03/02 14:10:13;;;;;;;8.27;5.32;;;;;;;19.65;25.26;100959.97;10128574;28;66279;-80
2022/03/02 14:15:09;;;;;;;9.27;5.57;;;;;;;19.57;25.46;100957.06;10124156;28;65486;-76
2022/03/02 14:20:01;;;;;;;6.65;5.90;;;;;;;19.36;24.94;100951.78;10127711;28;66387;-77
2022/03/02 14:24:55;;;;;;;6.85;6.00;;;;;;;19.36;24.98;100953.69;10126168;28;65607;-75
2022/03/02 14:30:16;;;;;;;7.05;5.55;;;;;;;19.45;24.78;100942.88;10127370;28;65488;-79
2022/03/02 14:35:08;;;;;;;8.00;4.97;;;;;;;19.65;25.68;100946.22;10125245;28;66009;-76
2022/03/02 14:40:06;;;;;;;7.75;4.70;;;;;;;19.61;26.26;100934.19;10126966;28;65618;-77
2022/03/02 14:45:18;;;;;;;5.13;4.50;;;;;;;19.76;26.31;100936.75;10126627;28;66599;-78
2022/03/02 14:50:21;;;;;;;6.50;4.30;;;;;;;19.87;26.52;100931.91;10122117;28;66416;-78
2022/03/02 14:55:25;;;;;;;5.45;4.10;;;;;;;19.90;26.97;100925.00;10127600;28;66397;-77
2022/03/02 15:00:17;;;;;;;6.38;3.85;;;;;;;19.92;27.29;100925.53;10127122;28;66037;-77
2022/03/02 15:05:09;;;;;;;6.30;3.70;;;;;;;19.92;27.38;100926.34;10126566;28;66875;-76
2022/03/02 15:10:06;;;;;;;4.72;3.33;;;;;;;19.96;27.62;100924.63;10126714;28;66323;-76
2022/03/02 15:15:12;;;;;;;5.38;3.75;;;;;;;19.96;27.83;100921.88;10125120;28;66606;-77
2022/03/02 15:20:07;;;;;;;6.30;3.83;;;;;;;20.07;28.13;100922.56;10127165;28;66157;-77
2022/03/02 15:25:00;;;;;;;5.90;3.55;;;;;;;20.10;28.18;100919.19;10125135;28;65916;-79
2022/03/02 15:29:52;;;;;;;4.07;3.13;;;;;;;20.03;28.54;100908.56;10125387;28;65620;-79
2022/03/02 15:34:47;;;;;;;4.50;3.05;;;;;;;20.07;28.71;100904.13;10126282;28;66287;-77
2022/03/02 15:39:47;;;;;;;5.03;3.22;;;;;;;20.05;29.00;100902.78;10122479;28;66914;-78
2022/03/02 15:44:58;;;;;;;4.80;3.28;;;;;;;20.03;29.17;100903.06;10124686;28;66232;-80
2022/03/02 15:49:52;;;;;;;4.63;3.38;;;;;;;20.10;29.20;100897.19;10124256;28;65583;-79
2022/03/02 15:54:54;;;;;;;3.05;2.47;;;;;;;20.00;29.49;100898.16;10121823;28;65634;-80
2022/03/02 15:59:47;;;;;;;4.40;2.85;;;;;;;20.09;29.49;100898.28;10109498;28;66257;-81
2022/03/02 16:04:39;;;;;;;3.15;2.70;;;;;;;20.08;29.65;100894.72;10124367;28;65667;-82
2022/03/02 16:09:32;;;;;;;3.85;2.92;;;;;;;20.07;29.86;100903.28;10124921;28;66364;-82
2022/03/02 16:14:24;;;;;;;4.43;3.08;;;;;;;20.06;29.95;100896.97;10124520;28;66450;-82
2022/03/02 16:19:17;;;;;;;4.10;2.63;;;;;;;20.05;29.89;100897.25;10124895;28;66761;-82
2022/03/02 16:24:24;;;;;;;4.65;2.95;;;;;;;20.01;30.22;100894.28;10124416;28;65611;-83
2022/03/02 16:29:17;;;;;;;5.25;2.88;;;;;;;19.99;30.33;100893.78;10124574;28;65490;-79
2022/03/02 16:34:09;;;;;;;4.50;3.08;;;;;;;19.83;30.70;100889.59;10123819;28;66964;-78
2022/03/02 16:39:01;;;;;;;3.47;2.67;;;;;;;19.89;30.65;100884.84;10124411;28;66416;-77
2022/03/02 16:43:53;;;;;;;5.53;2.70;;;;;;;19.82;30.76;100887.13;10123627;28;65562;-78
2022/03/02 16:48:46;;;;;;;6.38;2.72;;;;;;;19.88;30.82;100881.25;10112722;28;66734;-78
2022/03/02 16:53:38;;;;;;;6.35;2.90;;;;;;;19.87;30.73;100881.56;10123599;28;66330;-79
2022/03/02 16:58:32;;;;;;;3.70;2.53;;;;;;;19.83;30.79;100891.53;10124012;28;66400;-78
2022/03/02 17:03:24;;;;;;;4.32;2.67;;;;;;;19.86;30.86;100899.22;10128680;28;66662;-78
2022/03/02 17:08:17;;;;;;;4.03;2.78;;;;;;;19.84;30.77;100894.00;10130579;28;66375;-73
2022/03/02 17:13:09;;;;;;;3.55;2.90;;;;;;;19.89;30.77;100890.34;10132085;28;66396;-73
2022/03/02 17:18:01;;;;;;;3.65;2.30;;;;;;;19.84;30.91;100895.94;10130067;28;65585;-73
2022/03/02 17:22:53;;;;;;;3.55;2.75;;;;;;;19.75;30.83;100899.34;10128294;28;66254;-73
2022/03/02 17:27:49;;;;;;;7.32;5.18;;;;;;;19.53;30.29;100907.34;10129855;28;65591;-73
2022/03/02 17:32:41;;;;;;;5.40;4.30;;;;;;;19.67;30.21;100902.75;10130388;28;65693;-72
2022/03/02 17:37:46;;;;;;;6.30;3.65;;;;;;;19.82;29.97;100920.16;10122746;28;66516;-73
2022/03/02 17:42:39;;;;;;;7.70;3.55;;;;;;;19.65;30.34;100913.22;10126701;28;66659;-73
2022/03/02 17:47:32;;;;;;;5.80;3.88;;;;;;;19.75;30.49;100909.53;10128327;28;66850;-73
2022/03/02 17:52:24;;;;;;;5.13;3.30;;;;;;;19.59;30.85;100903.41;10126704;28;66428;-72
2022/03/02 17:57:17;;;;;;;5.85;3.63;;;;;;;19.55;31.11;100910.63;10127510;28;65573;-69
2022/03/02 18:02:11;;;;;;;6.40;3.40;;;;;;;19.63;31.32;100907.22;10124652;28;66351;-75
2022/03/02 18:07:05;;;;;;;6.70;3.55;;;;;;;19.63;31.30;100920.16;10127580;28;66401;-74
2022/03/02 18:11:57;;;;;;;6.57;3.30;;;;;;;19.68;31.26;100907.13;10127560;28;66454;-74
2022/03/02 18:16:49;;;;;;;4.18;3.03;;;;;;;19.71;31.33;100908.50;10126293;28;65502;-74
2022/03/02 18:21:41;;;;;;;3.88;3.25;;;;;;;19.63;31.41;100909.16;10132295;28;66236;-75
2022/03/02 18:26:36;;;;;;;4.43;3.47;;;;;;;19.60;31.37;100905.03;10126691;28;66444;-75
2022/03/02 18:31:28;;;;;;;4.53;3.40;;;;;;;19.62;31.55;100902.81;10126447;28;65562;-75
2022/03/02 18:36:20;;;;;;;4.53;2.97;;;;;;;19.61;31.55;100905.88;10127808;28;66344;-76
2022/03/02 18:41:12;;;;;;;4.45;3.22;;;;;;;19.60;31.52;100899.53;10127885;28;65537;-76
2022/03/02 18:46:05;;;;;;;6.43;3.20;;;;;;;19.56;31.69;100901.22;10102691;28;64975;-76
2022/03/02 18:50:57;;;;;;;4.80;2.92;;;;;;;19.60;31.77;100905.03;10126359;28;66426;-77
2022/03/02 18:55:50;;;;;;;4.63;3.55;;;;;;;19.58;31.76;100906.44;10119736;28;66457;-76
2022/03/02 19:00:42;;;;;;;3.67;3.15;;;;;;;19.58;32.01;100909.19;10127609;28;65585;-75
2022/03/02 19:05:35;;;;;;;6.65;3.38;;;;;;;19.60;32.08;100906.97;10126370;28;65481;-72
2022/03/02 19:10:27;;;;;;;12.50;3.70;;;;;;;19.81;32.19;100902.84;10136423;28;66399;-69
2022/03/02 19:15:19;;;;;;;10.23;3.38;;;;;;;19.91;32.45;100907.38;10118446;28;66203;-70
2022/03/02 19:20:12;;;;;;;6.55;3.47;;;;;;;19.89;32.63;100906.84;10125311;28;66771;-70
2022/03/02 19:25:06;;;;;;;4.68;3.30;;;;;;;19.98;32.68;100913.34;10119786;28;66236;-71
2022/03/02 19:29:58;;;;;;;5.20;3.30;;;;;;;19.97;32.76;100908.94;10116202;28;66365;-71
2022/03/02 19:34:50;;;;;;;6.13;3.08;;;;;;;19.94;33.05;100906.78;10125714;28;65516;-72
2022/03/02 19:39:58;;;;;;;6.40;3.85;;;;;;;19.98;32.70;100900.38;10125227;28;66241;-75
2022/03/02 19:44:51;;;;;;;7.43;3.15;;;;;;;19.95;32.63;100897.41;10125623;28;66305;-72
2022/03/02 19:49:43;;;;;;;4.90;2.90;;;;;;;19.97;32.79;100901.50;10124970;28;65062;-72
2022/03/02 19:54:35;;;;;;;5.80;3.30;;;;;;;19.99;32.85;100896.53;10124778;28;66799;-73
2022/03/02 19:59:27;;;;;;;4.30;3.10;;;;;;;19.98;32.84;100896.81;10124217;28;65605;-73
2022/03/02 20:04:21;;;;;;;4.25;3.08;;;;;;;19.99;32.87;100898.47;10121393;28;66370;-72
2022/03/02 20:09:13;;;;;;;3.63;3.05;;;;;;;19.97;32.75;100893.25;10121153;28;65534;-72
2022/03/02 20:14:06;;;;;;;4.20;2.85;;;;;;;20.03;32.80;100897.56;10122505;28;65665;-71
2022/03/02 20:18:58;;;;;;;5.35;2.95;;;;;;;20.05;32.84;100902.78;10123185;28;66158;-72
2022/03/02 20:23:51;;;;;;;5.10;3.00;;;;;;;20.05;32.83;100902.78;10125289;28;66474;-72
2022/03/02 20:28:43;;;;;;;6.28;3.30;;;;;;;20.06;32.82;100896.16;10119458;28;66481;-72
2022/03/02 20:33:35;;;;;;;4.30;3.33;;;;;;;20.04;32.61;100893.69;10125103;28;65723;-71
2022/03/02 20:38:28;;;;;;;5.55;3.55;;;;;;;20.05;32.65;100895.34;10131101;28;66413;-70
2022/03/02 20:43:22;;;;;;;6.20;3.20;;;;;;;20.06;32.55;100902.47;10131255;28;66331;-70
2022/03/02 20:48:15;;;;;;;3.83;2.92;;;;;;;20.08;32.53;100905.72;10129555;28;66375;-71
2022/03/02 23:15:52;;;;;;;4.43;3.20;;;;;;;20.04;32.02;100863.41;10006296;28;67221;-74
2022/03/02 23:20:47;;;;;;;3.63;3.00;;;;;;;20.03;32.17;100867.28;10001082;28;65855;-70
2022/03/02 23:25:39;;;;;;;3.63;3.22;;;;;;;20.05;32.06;100866.97;10007673;28;65505;-70
2022/03/02 23:30:31;;;;;;;4.13;3.05;;;;;;;20.04;32.09;100865.34;10007386;28;65514;-71
2022/03/02 23:35:23;;;;;;;3.85;3.22;;;;;;;19.97;32.07;100871.22;10007022;28;66274;-72
2022/03/02 23:40:17;;;;;;;5.13;3.40;;;;;;;20.01;32.18;100871.44;10006743;28;66335;-70
2022/03/02 23:45:11;;;;;;;3.53;2.95;;;;;;;20.00;32.12;100872.56;9989439;28;65904;-71
2022/03/02 23:50:03;;;;;;;3.20;2.90;;;;;;;20.01;32.08;100869.50;10006320;28;65607;-71
2022/03/02 23:54:55;;;;;;;5.97;3.22;;;;;;;20.04;32.13;100879.94;10004009;28;66822;-74
2022/03/02 23:59:49;;;;;;;5.40;3.15;;;;;;;20.01;31.97;100875.00;10004993;28;66185;-75
